^^
Station Historical Data
Daily Summary for May 28, 2017 Units:  English    Metric   Both
« Previous Day
Next Day »
Daily Weekly Monthly Yearly Custom
  High: Low: Average:
Temperature: 75.3 °F 52.7 °F 64 °F
Dew Point: 60.8 °F 50.7 °F 56.6 °F
Humidity: 94 % 54 % 78 %
Wind Speed: 4.9 mph 0.0 mph 0.2 mph
Wind Gust: 15.0 mph - -
Wind:- - SSE
Pressure: 29.93 in 29.86 in -
Precipitation: 0.02 in    
Historical Graphs
 
 
Tabular Data for May 28, 2017
Time Temperature Dew Point Pressure Wind Wind Speed Wind Gust Humidity Rainfall Rate (Hourly) solar Conditions
00:03 58.4 °F 54.2 °F 29.90 in Calm     86 % 0.00 in 0.0 W/m2 CLR
00:08 58.4 °F 54.5 °F 29.90 in Calm     87 % 0.00 in 0.0 W/m2 CLR
00:13 58.3 °F 54.4 °F 29.90 in Calm     87 % 0.00 in 0.0 W/m2 CLR
00:18 58.3 °F 54.8 °F 29.90 in Calm     88 % 0.00 in 0.0 W/m2 CLR
00:23 58.2 °F 54.3 °F 29.90 in Calm     87 % 0.00 in 0.0 W/m2 CLR
00:28 58.0 °F 54.2 °F 29.91 in Calm     87 % 0.00 in 0.0 W/m2 CLR
00:33 57.6 °F 54.1 °F 29.91 in Calm     88 % 0.00 in 0.0 W/m2 CLR
00:38 57.6 °F 54.1 °F 29.91 in Calm     88 % 0.00 in 0.0 W/m2 CLR
00:43 57.5 °F 54.0 °F 29.91 in Calm     88 % 0.00 in 0.0 W/m2 CLR
00:44 57.5 °F 54.0 °F 29.91 in Calm     88 % 0.00 in 0.0 W/m2 CLR
00:49 57.1 °F 53.6 °F 29.91 in Calm     88 % 0.00 in 0.0 W/m2 CLR
00:54 57.1 °F 53.9 °F 29.91 in Calm     89 % 0.00 in 0.0 W/m2 CLR
00:59 57.1 °F 53.9 °F 29.92 in Calm     89 % 0.00 in 0.0 W/m2 CLR
01:04 57.2 °F 54.0 °F 29.92 in Calm     89 % 0.00 in 0.0 W/m2 CLR
01:09 57.2 °F 54.0 °F 29.92 in Calm     89 % 0.00 in 0.0 W/m2 CLR
01:14 57.1 °F 53.9 °F 29.92 in Calm     89 % 0.00 in 0.0 W/m2 CLR
01:19 57.0 °F 53.8 °F 29.92 in Calm     89 % 0.00 in 0.0 W/m2 CLR
01:24 57.0 °F 53.8 °F 29.91 in Calm     89 % 0.00 in 0.0 W/m2 CLR
01:29 56.7 °F 53.5 °F 29.91 in Calm     89 % 0.00 in 0.0 W/m2 CLR
01:34 56.5 °F 53.6 °F 29.91 in Calm     90 % 0.00 in 0.0 W/m2 CLR
01:40 56.5 °F 53.6 °F 29.91 in Calm     90 % 0.00 in 0.0 W/m2 CLR
01:44 56.2 °F 53.3 °F 29.91 in Calm     90 % 0.00 in 0.0 W/m2 CLR
01:50 56.2 °F 53.3 °F 29.90 in Calm     90 % 0.00 in 0.0 W/m2 CLR
01:55 56.1 °F 53.2 °F 29.90 in Calm     90 % 0.00 in 0.0 W/m2 CLR
02:00 56.0 °F 53.1 °F 29.90 in Calm     90 % 0.00 in 0.0 W/m2 CLR
02:05 55.8 °F 52.9 °F 29.91 in Calm     90 % 0.00 in 0.0 W/m2 CLR
02:10 55.7 °F 53.1 °F 29.90 in Calm     91 % 0.00 in 0.0 W/m2 CLR
02:15 55.7 °F 53.1 °F 29.89 in Calm     91 % 0.00 in 0.0 W/m2 CLR
02:20 55.7 °F 53.1 °F 29.89 in Calm     91 % 0.00 in 0.0 W/m2 CLR
02:25 55.8 °F 53.2 °F 29.89 in Calm     91 % 0.00 in 0.0 W/m2 CLR
02:30 55.7 °F 53.1 °F 29.90 in Calm     91 % 0.00 in 0.0 W/m2 CLR
02:35 55.6 °F 53.0 °F 29.90 in Calm     91 % 0.00 in 0.0 W/m2 CLR
02:40 55.3 °F 52.7 °F 29.90 in Calm     91 % 0.00 in 0.0 W/m2 CLR
02:45 55.1 °F 52.5 °F 29.90 in Calm     91 % 0.00 in 0.0 W/m2 CLR
02:50 55.1 °F 52.8 °F 29.89 in Calm     92 % 0.00 in 0.0 W/m2 CLR
02:55 55.1 °F 52.8 °F 29.89 in Calm     92 % 0.00 in 0.0 W/m2 CLR
03:00 55.1 °F 52.8 °F 29.89 in Calm     92 % 0.00 in 0.0 W/m2 CLR
03:05 54.9 °F 52.6 °F 29.88 in Calm     92 % 0.00 in 0.0 W/m2 CLR
03:10 54.6 °F 52.3 °F 29.89 in Calm     92 % 0.00 in 0.0 W/m2 CLR
03:15 54.2 °F 51.9 °F 29.89 in Calm     92 % 0.00 in 0.0 W/m2 CLR
03:20 54.3 °F 52.0 °F 29.89 in Calm     92 % 0.00 in 0.0 W/m2 CLR
03:25 54.5 °F 52.2 °F 29.89 in Calm     92 % 0.00 in 0.0 W/m2 CLR
03:30 54.4 °F 52.1 °F 29.89 in Calm     92 % 0.00 in 0.0 W/m2 CLR
03:35 54.4 °F 52.1 °F 29.89 in Calm     92 % 0.00 in 0.0 W/m2 CLR
03:41 54.4 °F 52.4 °F 29.89 in Calm     93 % 0.00 in 0.0 W/m2 CLR
03:46 54.5 °F 52.5 °F 29.90 in Calm     93 % 0.00 in 0.0 W/m2 CLR
03:51 54.4 °F 52.1 °F 29.90 in Calm     92 % 0.00 in 0.0 W/m2 CLR
04:01 54.2 °F 52.2 °F 29.89 in Calm     93 % 0.00 in 0.0 W/m2 CLR
04:06 53.9 °F 51.9 °F 29.89 in Calm     93 % 0.00 in 0.0 W/m2 CLR
04:11 53.7 °F 51.4 °F 29.89 in Calm     92 % 0.00 in 0.0 W/m2 CLR
04:16 53.6 °F 51.6 °F 29.89 in Calm     93 % 0.00 in 0.0 W/m2 CLR
04:21 53.6 °F 51.6 °F 29.89 in Calm     93 % 0.00 in 0.0 W/m2 CLR
04:26 53.5 °F 51.5 °F 29.88 in Calm     93 % 0.00 in 0.0 W/m2 CLR
04:31 53.5 °F 51.5 °F 29.89 in Calm     93 % 0.00 in 0.0 W/m2 CLR
04:34 53.5 °F 51.5 °F 29.89 in Calm     93 % 0.00 in 0.0 W/m2 CLR
04:39 53.6 °F 51.6 °F 29.89 in Calm     93 % 0.00 in 0.0 W/m2 FEW
04:44 53.4 °F 51.4 °F 29.89 in Calm     93 % 0.00 in 0.0 W/m2 FEW
04:49 52.9 °F 50.9 °F 29.89 in Calm     93 % 0.00 in 0.0 W/m2 FEW
04:54 52.9 °F 50.9 °F 29.89 in Calm     93 % 0.00 in 0.0 W/m2 FEW
04:59 52.8 °F 50.8 °F 29.89 in Calm     93 % 0.00 in 0.0 W/m2 FEW
05:04 52.9 °F 50.9 °F 29.89 in Calm     93 % 0.00 in 0.0 W/m2 CLR
05:09 52.9 °F 50.9 °F 29.89 in Calm     93 % 0.00 in 0.0 W/m2 CLR
05:14 52.9 °F 50.9 °F 29.89 in Calm     93 % 0.00 in 0.0 W/m2 CLR
05:19 53.0 °F 51.3 °F 29.89 in Calm     94 % 0.00 in 0.0 W/m2 CLR
05:24 53.1 °F 51.1 °F 29.89 in Calm     93 % 0.00 in 0.0 W/m2 CLR
05:29 53.1 °F 51.1 °F 29.89 in Calm     93 % 0.00 in 0.0 W/m2 CLR
05:34 53.1 °F 51.4 °F 29.89 in Calm     94 % 0.00 in 0.0 W/m2 CLR
05:39 53.2 °F 51.5 °F 29.90 in Calm     94 % 0.00 in 5.0 W/m2 FEW
05:44 53.0 °F 51.3 °F 29.90 in Calm     94 % 0.00 in 7.0 W/m2 FEW
05:49 53.0 °F 51.3 °F 29.91 in Calm     94 % 0.00 in 11.0 W/m2 FEW
05:54 52.8 °F 51.1 °F 29.91 in Calm     94 % 0.00 in 16.0 W/m2 FEW
05:59 52.9 °F 51.2 °F 29.91 in Calm     94 % 0.00 in 21.0 W/m2 FEW
06:04 52.9 °F 50.9 °F 29.91 in Calm     93 % 0.00 in 23.0 W/m2 CLR
06:09 52.8 °F 50.8 °F 29.91 in Calm     93 % 0.00 in 23.0 W/m2 CLR
06:14 52.7 °F 50.7 °F 29.91 in Calm     93 % 0.00 in 23.0 W/m2 CLR
06:19 52.8 °F 51.1 °F 29.91 in Calm     94 % 0.00 in 23.0 W/m2 CLR
06:24 53.1 °F 51.4 °F 29.92 in Calm     94 % 0.00 in 26.0 W/m2 CLR
06:29 53.4 °F 51.7 °F 29.91 in Calm     94 % 0.00 in 30.0 W/m2 CLR
06:34 53.5 °F 51.5 °F 29.91 in Calm     93 % 0.00 in 35.0 W/m2 CLR
06:39 53.7 °F 52.0 °F 29.91 in Calm     94 % 0.00 in 39.0 W/m2 CLR
06:44 54.0 °F 52.0 °F 29.91 in Calm     93 % 0.00 in 40.0 W/m2 CLR
06:49 54.4 °F 52.7 °F 29.91 in Calm     94 % 0.00 in 42.0 W/m2 CLR
06:54 54.8 °F 52.8 °F 29.91 in Calm     93 % 0.00 in 42.0 W/m2 CLR
06:59 55.3 °F 53.3 °F 29.92 in Calm     93 % 0.00 in 42.0 W/m2 CLR
07:04 55.4 °F 53.4 °F 29.92 in Calm     93 % 0.00 in 44.0 W/m2 CLR
07:09 55.6 °F 53.3 °F 29.92 in Calm     92 % 0.00 in 47.0 W/m2 CLR
07:14 55.8 °F 53.5 °F 29.92 in Calm     92 % 0.00 in 47.0 W/m2 CLR
07:19 56.1 °F 53.8 °F 29.93 in Calm     92 % 0.00 in 51.0 W/m2 CLR
07:24 56.4 °F 54.1 °F 29.93 in Calm     92 % 0.00 in 49.0 W/m2 CLR
07:29 56.7 °F 54.4 °F 29.93 in Calm     92 % 0.00 in 63.0 W/m2 CLR
07:34 57.0 °F 54.4 °F 29.93 in Calm     91 % 0.00 in 53.0 W/m2 CLR
07:39 57.3 °F 54.7 °F 29.93 in Calm     91 % 0.00 in 54.0 W/m2 CLR
07:45 57.9 °F 55.0 °F 29.93 in Calm     90 % 0.00 in 60.0 W/m2 CLR
07:50 58.1 °F 55.2 °F 29.93 in Calm     90 % 0.00 in 65.0 W/m2 CLR
07:55 58.8 °F 55.9 °F 29.92 in Calm     90 % 0.00 in 69.0 W/m2 CLR
08:00 58.9 °F 55.7 °F 29.92 in Calm     89 % 0.00 in 74.0 W/m2 CLR
08:05 59.1 °F 55.9 °F 29.92 in Calm     89 % 0.00 in 77.0 W/m2 CLR
08:10 59.9 °F 56.6 °F 29.92 in Calm     89 % 0.00 in 83.0 W/m2 CLR
08:15 60.2 °F 56.6 °F 29.92 in Calm   1.2 mph 88 % 0.00 in 86.0 W/m2 CLR
08:16 60.2 °F 56.6 °F 29.92 in Calm   1.2 mph 88 % 0.00 in 88.0 W/m2 CLR
08:21 60.7 °F 57.1 °F 29.91 in Calm   1.2 mph 88 % 0.00 in 88.0 W/m2 CLR
08:26 61.1 °F 57.2 °F 29.91 in Calm     87 % 0.00 in 93.0 W/m2 CLR
08:31 61.4 °F 57.5 °F 29.90 in Calm     87 % 0.00 in 100.0 W/m2 CLR
08:36 61.8 °F 57.9 °F 29.91 in Calm     87 % 0.00 in 83.0 W/m2 CLR
08:41 62.3 °F 58.1 °F 29.91 in Calm     86 % 0.00 in 65.0 W/m2 CLR
08:46 62.7 °F 58.1 °F 29.91 in Calm     85 % 0.00 in 60.0 W/m2 CLR
08:51 63.4 °F 58.8 °F 29.91 in Calm     85 % 0.00 in 60.0 W/m2 CLR
08:57 64.2 °F 59.3 °F 29.91 in NNW 0.5 mph   84 % 0.00 in 63.0 W/m2 CLR
09:02 64.8 °F 59.5 °F 29.91 in Calm   3.5 mph 83 % 0.00 in 74.0 W/m2 CLR
09:07 65.4 °F 59.4 °F 29.91 in Calm   3.5 mph 81 % 0.00 in 186.0 W/m2 CLR
09:12 65.6 °F 58.9 °F 29.91 in Calm     79 % 0.00 in 504.0 W/m2 CLR
09:17 66.1 °F 59.7 °F 29.91 in Calm     80 % 0.00 in 563.0 W/m2 CLR
09:22 66.8 °F 59.7 °F 29.90 in Calm   1.2 mph 78 % 0.00 in 664.0 W/m2 CLR
09:27 67.4 °F 59.9 °F 29.90 in Calm   1.2 mph 77 % 0.00 in 448.0 W/m2 CLR
09:32 67.6 °F 59.8 °F 29.90 in Calm     76 % 0.00 in 601.0 W/m2 CLR
09:37 68.1 °F 60.2 °F 29.91 in Calm   1.2 mph 76 % 0.00 in 636.0 W/m2 CLR
09:42 68.9 °F 60.3 °F 29.91 in Calm   1.2 mph 74 % 0.00 in 668.0 W/m2 CLR
09:47 68.6 °F 59.2 °F 29.91 in Calm   1.2 mph 72 % 0.00 in 707.0 W/m2 CLR
09:52 68.8 °F 59.8 °F 29.91 in Calm   1.2 mph 73 % 0.00 in 696.0 W/m2 CLR
09:57 69.3 °F 59.9 °F 29.90 in Calm   1.2 mph 72 % 0.00 in 731.0 W/m2 CLR
10:02 69.3 °F 59.9 °F 29.89 in NNE 0.6 mph 3.5 mph 72 % 0.00 in 691.0 W/m2 CLR
10:07 70.2 °F 60.0 °F 29.89 in East 0.4 mph 3.5 mph 70 % 0.00 in 772.0 W/m2 CLR
10:12 70.3 °F 59.2 °F 29.89 in SSE 0.1 mph 3.5 mph 68 % 0.00 in 715.0 W/m2 CLR
10:17 70.3 °F 58.8 °F 29.89 in South 1.1 mph 6.9 mph 67 % 0.00 in 805.0 W/m2 CLR
10:22 70.5 °F 58.6 °F 29.90 in South 3.5 mph 8.1 mph 66 % 0.00 in 773.0 W/m2 CLR
10:27 70.8 °F 59.3 °F 29.90 in Calm   8.1 mph 67 % 0.00 in 854.0 W/m2 CLR
10:32 70.4 °F 58.1 °F 29.90 in South 0.3 mph 8.1 mph 65 % 0.00 in 912.0 W/m2 CLR
10:37 70.5 °F 58.6 °F 29.90 in SSW 0.4 mph 9.2 mph 66 % 0.00 in 195.0 W/m2 CLR
10:42 70.7 °F 58.4 °F 29.90 in South 1.0 mph 9.2 mph 65 % 0.00 in 216.0 W/m2 CLR
10:47 71.4 °F 59.0 °F 29.90 in Calm   8.1 mph 65 % 0.00 in 786.0 W/m2 CLR
10:48 71.5 °F 59.1 °F 29.90 in Calm   8.1 mph 65 % 0.00 in 786.0 W/m2 CLR
10:53 71.9 °F 59.1 °F 29.90 in SSW 0.8 mph 8.1 mph 64 % 0.00 in 842.0 W/m2 CLR
10:58 72.6 °F 60.2 °F 29.90 in Calm   5.8 mph 65 % 0.00 in 962.0 W/m2 CLR
11:03 72.9 °F 59.1 °F 29.89 in Calm   5.8 mph 62 % 0.00 in 930.0 W/m2 CLR
11:08 72.8 °F 59.0 °F 29.89 in South 0.1 mph 8.1 mph 62 % 0.00 in 960.0 W/m2 CLR
11:13 72.9 °F 59.1 °F 29.90 in South 0.9 mph 11.5 mph 62 % 0.00 in 577.0 W/m2 CLR
11:18 72.6 °F 57.9 °F 29.90 in SSE 0.8 mph 11.5 mph 60 % 0.00 in 527.0 W/m2 CLR
11:23 73.1 °F 58.4 °F 29.90 in SE 0.3 mph 6.9 mph 60 % 0.00 in 751.0 W/m2 CLR
11:28 73.8 °F 58.6 °F 29.90 in SSW 1.0 mph 6.9 mph 59 % 0.00 in 960.0 W/m2 CLR
11:33 74.3 °F 58.1 °F 29.90 in South 4.2 mph 6.9 mph 57 % 0.00 in 1071.0 W/m2 CLR
11:38 73.3 °F 58.1 °F 29.91 in SE 0.1 mph 6.9 mph 59 % 0.00 in 849.0 W/m2 CLR
11:43 73.4 °F 58.2 °F 29.91 in SSW 4.9 mph 15.0 mph 59 % 0.00 in 904.0 W/m2 CLR
11:48 73.9 °F 59.6 °F 29.91 in SSW 0.8 mph 15.0 mph 61 % 0.00 in 928.0 W/m2 CLR
11:58 74.3 °F 57.6 °F 29.92 in South 0.1 mph 9.2 mph 56 % 0.00 in 867.0 W/m2 CLR
12:03 75.1 °F 58.8 °F 29.91 in SE 0.1 mph 9.2 mph 57 % 0.00 in 823.0 W/m2 FEW
12:08 75.3 °F 59.0 °F 29.91 in SSW 0.3 mph 10.4 mph 57 % 0.00 in 814.0 W/m2 FEW
12:13 74.7 °F 58.0 °F 29.91 in Calm   10.4 mph 56 % 0.00 in 875.0 W/m2 FEW
12:18 74.3 °F 56.6 °F 29.91 in NE 0.1 mph 9.2 mph 54 % 0.00 in 320.0 W/m2 FEW
12:23 74.0 °F 57.8 °F 29.91 in ESE 0.2 mph 3.5 mph 57 % 0.00 in 325.0 W/m2 FEW
12:28 74.7 °F 58.5 °F 29.91 in Calm   3.5 mph 57 % 0.00 in 911.0 W/m2 FEW
12:31 74.8 °F 58.5 °F 29.91 in ENE 0.3 mph 3.5 mph 57 % 0.00 in 937.0 W/m2 FEW
12:36 74.6 °F 58.8 °F 29.90 in Calm   3.5 mph 58 % 0.00 in 417.0 W/m2 FEW
12:41 74.6 °F 58.8 °F 29.90 in Calm   3.5 mph 58 % 0.00 in 1011.0 W/m2 FEW
12:46 75.3 °F 58.5 °F 29.90 in East 0.2 mph 4.6 mph 56 % 0.00 in 410.0 W/m2 FEW
12:51 75.0 °F 58.2 °F 29.91 in SSE 0.9 mph 10.4 mph 56 % 0.00 in 380.0 W/m2 FEW
12:56 74.7 °F 57.5 °F 29.90 in South 3.8 mph 10.4 mph 55 % 0.00 in 350.0 W/m2 FEW
13:01 74.2 °F 57.0 °F 29.90 in South 1.4 mph 10.4 mph 55 % 0.00 in 283.0 W/m2 FEW
13:06 73.8 °F 57.1 °F 29.90 in South 0.4 mph 9.2 mph 56 % 0.00 in 220.0 W/m2 FEW
13:11 73.8 °F 57.1 °F 29.90 in ESE 0.2 mph 6.9 mph 56 % 0.00 in 162.0 W/m2 FEW
13:16 73.7 °F 58.0 °F 29.90 in Calm   6.9 mph 58 % 0.00 in 120.0 W/m2 FEW
13:21 73.4 °F 57.7 °F 29.90 in SSW 0.7 mph 4.6 mph 58 % 0.00 in 125.0 W/m2 FEW
13:26 73.4 °F 57.2 °F 29.90 in South 0.6 mph 9.2 mph 57 % 0.00 in 163.0 W/m2 FEW
13:31 73.2 °F 57.5 °F 29.90 in Calm   9.2 mph 58 % 0.00 in 163.0 W/m2 FEW
13:36 73.2 °F 58.0 °F 29.90 in Calm   9.2 mph 59 % 0.00 in 156.0 W/m2 FEW
13:41 73.3 °F 57.6 °F 29.89 in SSE 0.1 mph 3.5 mph 58 % 0.00 in 183.0 W/m2 FEW
13:46 73.1 °F 57.4 °F 29.90 in Calm   2.3 mph 58 % 0.00 in 167.0 W/m2 FEW
13:52 73.1 °F 57.4 °F 29.90 in SSE 2.2 mph 8.1 mph 58 % 0.00 in 193.0 W/m2 FEW
13:57 73.1 °F 57.9 °F 29.90 in SSW 0.6 mph 8.1 mph 59 % 0.00 in 244.0 W/m2 FEW
14:02 73.0 °F 58.8 °F 29.89 in South 0.1 mph 8.1 mph 61 % 0.00 in 373.0 W/m2 OVC
14:07 73.3 °F 58.1 °F 29.89 in South 0.9 mph 5.8 mph 59 % 0.00 in 510.0 W/m2 OVC
14:12 73.6 °F 58.9 °F 29.88 in ESE 0.1 mph 5.8 mph 60 % 0.00 in 578.0 W/m2 OVC
14:17 74.1 °F 59.3 °F 29.88 in Calm   3.5 mph 60 % 0.00 in 636.0 W/m2 OVC
14:22 74.1 °F 59.3 °F 29.88 in Calm   8.1 mph 60 % 0.00 in 427.0 W/m2 OVC
14:27 74.2 °F 58.5 °F 29.88 in SSE 0.5 mph 8.1 mph 58 % 0.00 in 578.0 W/m2 OVC
14:32 74.8 °F 60.0 °F 29.88 in SE 0.2 mph 10.4 mph 60 % 0.00 in 603.0 W/m2 OVC
14:37 74.2 °F 58.9 °F 29.88 in Calm   10.4 mph 59 % 0.00 in 540.0 W/m2 OVC
14:42 73.7 °F 59.9 °F 29.87 in Calm   10.4 mph 62 % 0.00 in 404.0 W/m2 OVC
14:47 73.7 °F 59.9 °F 29.87 in SE 0.4 mph 10.4 mph 62 % 0.00 in 450.0 W/m2 OVC
14:52 73.6 °F 59.8 °F 29.87 in ESE 0.5 mph 8.1 mph 62 % 0.00 in 364.0 W/m2 OVC
14:57 73.1 °F 59.3 °F 29.87 in South 0.5 mph 3.5 mph 62 % 0.00 in 362.0 W/m2 OVC
15:02 73.3 °F 59.5 °F 29.87 in SSE 0.3 mph 3.5 mph 62 % 0.00 in 510.0 W/m2 BKN
15:07 73.2 °F 59.8 °F 29.86 in SE 0.5 mph 5.8 mph 63 % 0.00 in 322.0 W/m2 BKN
15:12 73.4 °F 60.5 °F 29.87 in Calm   5.8 mph 64 % 0.00 in 325.0 W/m2 BKN
15:17 73.2 °F 59.8 °F 29.87 in Calm   5.8 mph 63 % 0.00 in 241.0 W/m2 BKN
15:22 73.2 °F 59.8 °F 29.86 in SE 0.1 mph 5.8 mph 63 % 0.00 in 192.0 W/m2 BKN
15:27 72.8 °F 59.5 °F 29.86 in SSE 1.3 mph 5.8 mph 63 % 0.00 in 229.0 W/m2 BKN
15:32 72.6 °F 59.7 °F 29.86 in Calm   6.9 mph 64 % 0.00 in 199.0 W/m2 BKN
15:37 72.5 °F 59.6 °F 29.86 in South 0.2 mph 6.9 mph 64 % 0.00 in 218.0 W/m2 BKN
15:42 72.6 °F 59.7 °F 29.86 in Calm   6.9 mph 64 % 0.00 in 197.0 W/m2 BKN
15:47 72.5 °F 59.6 °F 29.86 in SE 1.1 mph 8.1 mph 64 % 0.00 in 190.0 W/m2 BKN
15:52 72.4 °F 59.5 °F 29.86 in Calm   8.1 mph 64 % 0.00 in 155.0 W/m2 BKN
15:58 72.2 °F 59.3 °F 29.86 in South 0.5 mph 8.1 mph 64 % 0.00 in 109.0 W/m2 BKN
16:03 72.0 °F 59.6 °F 29.86 in SE 0.8 mph 3.5 mph 65 % 0.00 in 81.0 W/m2 OVC
16:08 71.9 °F 59.5 °F 29.86 in ESE 1.2 mph 5.8 mph 65 % 0.00 in 62.0 W/m2 OVC
16:13 71.9 °F 59.9 °F 29.86 in South 0.3 mph 5.8 mph 66 % 0.00 in 67.0 W/m2 OVC
16:18 71.8 °F 59.8 °F 29.86 in SSW 1.0 mph 6.9 mph 66 % 0.00 in 84.0 W/m2 OVC
16:23 71.5 °F 59.5 °F 29.86 in Calm   6.9 mph 66 % 0.00 in 70.0 W/m2 OVC
16:28 71.2 °F 59.3 °F 29.86 in ESE 0.2 mph 5.8 mph 66 % 0.00 in 63.0 W/m2 OVC
16:33 71.1 °F 59.6 °F 29.86 in SSE 0.1 mph 4.6 mph 67 % 0.00 in 63.0 W/m2 OVC
16:38 71.0 °F 59.5 °F 29.86 in Calm   4.6 mph 67 % 0.00 in 62.0 W/m2 OVC
16:43 70.9 °F 59.4 °F 29.86 in Calm   5.8 mph 67 % 0.00 in 49.0 W/m2 OVC
16:48 70.9 °F 59.4 °F 29.86 in Calm   5.8 mph 67 % 0.00 in 44.0 W/m2 OVC
16:53 70.9 °F 59.4 °F 29.86 in SSW 1.1 mph 4.6 mph 67 % 0.00 in 47.0 W/m2 OVC
16:58 70.8 °F 59.3 °F 29.87 in Calm   3.5 mph 67 % 0.00 in 44.0 W/m2 OVC
16:59 70.8 °F 59.3 °F 29.86 in Calm   3.5 mph 67 % 0.00 in 44.0 W/m2 OVC
17:04 70.8 °F 59.3 °F 29.86 in SE 0.1 mph 3.5 mph 67 % 0.00 in 40.0 W/m2 OVC
17:09 70.7 °F 59.6 °F 29.86 in Calm   1.2 mph 68 % 0.00 in 30.0 W/m2 OVC
17:14 70.8 °F 59.7 °F 29.86 in Calm   2.3 mph 68 % 0.00 in 28.0 W/m2 OVC
17:19 70.8 °F 59.7 °F 29.86 in Calm   3.5 mph 68 % 0.00 in 23.0 W/m2 OVC
17:24 70.8 °F 59.7 °F 29.86 in Calm   3.5 mph 68 % 0.00 in 21.0 W/m2 OVC
17:30 70.8 °F 59.7 °F 29.86 in Calm   1.2 mph 68 % 0.00 in 21.0 W/m2 OVC
17:35 70.8 °F 60.1 °F 29.86 in Calm     69 % 0.00 in 19.0 W/m2 OVC
17:40 70.5 °F 59.8 °F 29.86 in Calm     69 % 0.00 in 19.0 W/m2 OVC
17:45 70.5 °F 59.8 °F 29.87 in Calm     69 % 0.00 in 18.0 W/m2 OVC
17:50 70.6 °F 60.3 °F 29.86 in Calm     70 % 0.00 in 19.0 W/m2 OVC
17:55 70.4 °F 60.5 °F 29.86 in Calm     71 % 0.00 in 21.0 W/m2 OVC
18:00 70.0 °F 60.6 °F 29.86 in Calm     72 % 0.00 in 18.0 W/m2 OVC
18:05 69.9 °F 60.8 °F 29.87 in Calm     73 % 0.00 in 14.0 W/m2 OVC
18:10 69.7 °F 60.7 °F 29.87 in Calm     73 % 0.00 in 21.0 W/m2 OVC
18:15 69.5 °F 60.8 °F 29.87 in Calm     74 % 0.00 in 19.0 W/m2 OVC
18:16 69.5 °F 60.8 °F 29.87 in Calm     74 % 0.00 in 18.0 W/m2 OVC
18:21 69.0 °F 60.0 °F 29.87 in Calm     73 % 0.00 in 16.0 W/m2 OVC
18:26 68.8 °F 59.8 °F 29.87 in Calm   3.5 mph 73 % 0.00 in 19.0 W/m2 OVC
18:31 68.8 °F 59.4 °F 29.87 in Calm   3.5 mph 72 % 0.00 in 21.0 W/m2 OVC
18:36 68.7 °F 59.7 °F 29.87 in Calm   1.2 mph 73 % 0.00 in 16.0 W/m2 OVC
18:41 68.6 °F 59.6 °F 29.87 in Calm     73 % 0.00 in 11.0 W/m2 OVC
18:46 68.4 °F 59.8 °F 29.87 in Calm   1.2 mph 74 % 0.00 in 12.0 W/m2 OVC
18:51 68.3 °F 59.7 °F 29.88 in Calm   1.2 mph 74 % 0.00 in 9.0 W/m2 OVC
18:56 68.2 °F 59.6 °F 29.88 in Calm     74 % 0.00 in 7.0 W/m2 OVC
19:01 68.1 °F 59.5 °F 29.88 in Calm     74 % 0.00 in 7.0 W/m2 OVC
19:06 68.0 °F 59.8 °F 29.87 in Calm     75 % 0.00 in 7.0 W/m2 OVC
19:11 67.9 °F 59.7 °F 29.88 in Calm     75 % 0.00 in 7.0 W/m2 OVC
19:16 67.9 °F 59.7 °F 29.88 in Calm     75 % 0.00 in 9.0 W/m2 OVC
19:21 67.8 °F 59.6 °F 29.88 in Calm     75 % 0.00 in 9.0 W/m2 OVC
19:26 67.8 °F 59.6 °F 29.88 in Calm     75 % 0.00 in 9.0 W/m2 OVC
19:31 67.8 °F 59.6 °F 29.88 in Calm     75 % 0.00 in 5.0 W/m2 OVC
19:36 67.8 °F 59.6 °F 29.88 in Calm   1.2 mph 75 % 0.00 in 7.0 W/m2 OVC
19:41 67.7 °F 59.1 °F 29.88 in Calm   4.6 mph 74 % 0.00 in 5.0 W/m2 OVC
19:46 67.6 °F 59.0 °F 29.88 in Calm   4.6 mph 74 % 0.00 in 5.0 W/m2 OVC
19:47 67.6 °F 59.0 °F 29.88 in Calm   4.6 mph 74 % 0.00 in 5.0 W/m2 OVC
19:52 67.5 °F 58.5 °F 29.88 in Calm   2.3 mph 73 % 0.00 in 5.0 W/m2 OVC
19:57 67.5 °F 58.5 °F 29.88 in Calm   1.2 mph 73 % 0.00 in 0.0 W/m2 OVC
20:02 67.2 °F 58.2 °F 29.88 in East 0.5 mph 3.5 mph 73 % 0.00 in 0.0 W/m2 OVC
20:07 67.0 °F 58.4 °F 29.89 in Calm   3.5 mph 74 % 0.00 in 0.0 W/m2 OVC
20:12 66.8 °F 58.6 °F 29.89 in Calm   3.5 mph 75 % 0.00 in 0.0 W/m2 OVC
20:17 66.5 °F 58.3 °F 29.89 in South 0.1 mph 1.2 mph 75 % 0.00 in 0.0 W/m2 OVC
20:22 66.1 °F 58.3 °F 29.89 in Calm   1.2 mph 76 % 0.00 in 0.0 W/m2 OVC
20:27 65.7 °F 58.7 °F 29.89 in Calm   1.2 mph 78 % 0.00 in 0.0 W/m2 OVC
20:32 65.4 °F 58.7 °F 29.89 in Calm   2.3 mph 79 % 0.00 in 0.0 W/m2 OVC
20:37 65.1 °F 58.4 °F 29.89 in Calm   2.3 mph 79 % 0.00 in 0.0 W/m2 OVC
20:42 64.8 °F 58.5 °F 29.89 in Calm   1.2 mph 80 % 0.00 in 0.0 W/m2 OVC
20:47 64.5 °F 58.5 °F 29.89 in ESE 0.4 mph 1.2 mph 81 % 0.00 in 0.0 W/m2 OVC
20:57 64.0 °F 58.4 °F 29.88 in Calm   2.3 mph 82 % 0.00 in 0.0 W/m2 OVC
21:02 63.6 °F 58.0 °F 29.88 in ESE 0.1 mph 2.3 mph 82 % 0.00 in 0.0 W/m2 -RA
21:07 63.4 °F 58.1 °F 29.88 in Calm   3.5 mph 83 % 0.00 in 0.0 W/m2 -RA
21:12 63.2 °F 58.3 °F 29.88 in East 0.1 mph 3.5 mph 84 % 0.00 in 0.0 W/m2 -RA
21:17 63.1 °F 58.2 °F 29.88 in Calm   2.3 mph 84 % 0.00 in 0.0 W/m2 -RA
21:22 62.8 °F 57.9 °F 29.88 in SE 0.2 mph 3.5 mph 84 % 0.00 in 0.0 W/m2 -RA
21:27 62.7 °F 57.8 °F 29.89 in Calm   3.5 mph 84 % 0.01 in 0.0 W/m2 -RA
21:32 62.6 °F 58.0 °F 29.88 in Calm   2.3 mph 85 % 0.01 in 0.0 W/m2 -RA
21:37 62.3 °F 57.7 °F 29.88 in Calm   3.5 mph 85 % 0.01 in 0.0 W/m2 -RA
21:42 61.9 °F 57.7 °F 29.88 in ESE 0.5 mph 3.5 mph 86 % 0.01 in 0.0 W/m2 -RA
21:47 61.6 °F 57.4 °F 29.88 in Calm   3.5 mph 86 % 0.01 in 0.0 W/m2 -RA
21:52 61.5 °F 57.6 °F 29.88 in Calm   3.5 mph 87 % 0.01 in 0.0 W/m2 -RA
21:57 61.3 °F 57.4 °F 29.88 in Calm   2.3 mph 87 % 0.01 in 0.0 W/m2 -RA
21:58 61.3 °F 57.4 °F 29.88 in Calm   2.3 mph 87 % 0.01 in 0.0 W/m2 -RA
22:03 61.1 °F 57.2 °F 29.89 in Calm   2.3 mph 87 % 0.01 in 0.0 W/m2 -RA
22:08 61.0 °F 57.1 °F 29.88 in Calm     87 % 0.01 in 0.0 W/m2 -RA
22:13 61.0 °F 57.4 °F 29.88 in Calm     88 % 0.01 in 0.0 W/m2 -RA
22:18 60.9 °F 57.3 °F 29.88 in Calm     88 % 0.01 in 0.0 W/m2 -RA
22:23 60.6 °F 57.0 °F 29.88 in Calm     88 % 0.02 in 0.0 W/m2 -RA
22:28 60.3 °F 56.7 °F 29.88 in Calm     88 % 0.01 in 0.0 W/m2 -RA
22:33 60.3 °F 57.0 °F 29.89 in Calm     89 % 0.01 in 0.0 W/m2 -RA
22:38 60.0 °F 56.7 °F 29.88 in Calm     89 % 0.01 in 0.0 W/m2 -RA
22:43 59.9 °F 56.6 °F 29.88 in Calm     89 % 0.01 in 0.0 W/m2 -RA
22:48 59.7 °F 56.5 °F 29.88 in Calm   1.2 mph 89 % 0.01 in 0.0 W/m2 -RA
22:53 59.6 °F 56.4 °F 29.88 in Calm   1.2 mph 89 % 0.01 in 0.0 W/m2 -RA
22:58 59.5 °F 56.3 °F 29.88 in Calm   1.2 mph 89 % 0.01 in 0.0 W/m2 -RA
23:03 59.3 °F 56.1 °F 29.88 in Calm   1.2 mph 89 % 0.01 in 0.0 W/m2 -RA
23:08 59.3 °F 56.1 °F 29.88 in Calm   1.2 mph 89 % 0.01 in 0.0 W/m2 -RA
23:13 59.1 °F 55.9 °F 29.89 in Calm   1.2 mph 89 % 0.01 in 0.0 W/m2 -RA
23:18 59.1 °F 55.9 °F 29.89 in Calm   1.2 mph 89 % 0.01 in 0.0 W/m2 -RA
23:23 59.1 °F 55.9 °F 29.89 in Calm   1.2 mph 89 % 0.00 in 0.0 W/m2 -RA
23:28 59.1 °F 55.9 °F 29.89 in Calm   1.2 mph 89 % 0.00 in 0.0 W/m2 -RA
23:33 59.1 °F 55.9 °F 29.88 in Calm     89 % 0.00 in 0.0 W/m2 -RA
23:38 59.0 °F 55.8 °F 29.88 in Calm   1.2 mph 89 % 0.00 in 0.0 W/m2 -RA
23:43 58.9 °F 55.7 °F 29.88 in Calm   1.2 mph 89 % 0.00 in 0.0 W/m2 -RA
23:48 58.8 °F 55.6 °F 29.88 in Calm   1.2 mph 89 % 0.00 in 0.0 W/m2 -RA
23:53 58.7 °F 55.5 °F 29.88 in Calm   1.2 mph 89 % 0.00 in 0.0 W/m2 OVC
23:58 58.7 °F 55.8 °F 29.88 in Calm     90 % 0.00 in 0.0 W/m2 OVC
Air Products Campus Weather
Compliments of Weather Underground - 3.5 mb